createdAt,value
2017-09-28T00:00:45.313Z,11.73
2017-09-28T00:03:13.228Z,10.90
2017-09-28T00:05:41.697Z,9.87
2017-09-28T00:08:10.500Z,8.67
2017-09-28T00:10:38.427Z,7.90
2017-09-28T00:13:06.409Z,7.33
2017-09-28T00:15:34.370Z,7.40
2017-09-28T00:18:02.323Z,6.70
2017-09-28T00:20:30.099Z,8.13
2017-09-28T00:22:57.954Z,7.27
2017-09-28T00:25:25.742Z,7.87
2017-09-28T00:27:53.490Z,7.23
2017-09-28T00:30:21.336Z,6.73
2017-09-28T00:32:49.071Z,6.87
2017-09-28T00:35:17.079Z,6.97
2017-09-28T00:37:46.175Z,5.87
2017-09-28T00:40:14.068Z,7.10
2017-09-28T00:42:44.075Z,6.70
2017-09-28T00:45:11.949Z,6.90
2017-09-28T00:47:39.812Z,6.50
2017-09-28T00:50:08.001Z,7.10
2017-09-28T00:52:35.960Z,7.43
2017-09-28T00:55:03.905Z,6.63
2017-09-28T00:57:31.798Z,6.50
2017-09-28T00:59:59.669Z,6.60
2017-09-28T01:02:27.522Z,7.63
2017-09-28T01:04:55.389Z,6.37
2017-09-28T01:07:23.353Z,6.43
2017-09-28T01:09:51.686Z,7.17
2017-09-28T01:12:19.707Z,6.30
2017-09-28T01:14:48.578Z,7.13
2017-09-28T01:17:16.755Z,5.63
2017-09-28T01:19:44.634Z,5.93
2017-09-28T01:22:13.142Z,6.20
2017-09-28T01:24:42.706Z,6.30
2017-09-28T01:27:11.375Z,5.60
2017-09-28T01:29:39.281Z,5.60
2017-09-28T01:32:07.145Z,5.77
2017-09-28T01:34:35.104Z,5.27
2017-09-28T01:37:03.088Z,5.70
2017-09-28T01:39:31.172Z,4.83
2017-09-28T01:42:02.773Z,5.50
2017-09-28T01:44:33.184Z,5.10
2017-09-28T01:47:01.628Z,5.27
2017-09-28T01:49:30.297Z,5.37
2017-09-28T01:51:58.247Z,5.10
2017-09-28T01:54:26.129Z,5.57
2017-09-28T01:56:54.620Z,5.90
2017-09-28T01:59:22.482Z,5.67
2017-09-28T02:01:50.346Z,5.57
2017-09-28T02:04:18.212Z,5.60
2017-09-28T02:06:46.166Z,5.90
2017-09-28T02:09:14.049Z,5.57
2017-09-28T02:11:42.941Z,4.83
2017-09-28T02:14:10.993Z,6.20
2017-09-28T02:16:38.871Z,5.60
2017-09-28T02:19:06.738Z,5.60
2017-09-28T02:21:34.551Z,6.90
2017-09-28T02:24:02.562Z,5.80
2017-09-28T02:26:30.556Z,5.70
2017-09-28T02:28:59.113Z,6.17
2017-09-28T02:31:26.885Z,4.87
2017-09-28T02:33:55.067Z,5.83
2017-09-28T02:36:22.936Z,5.27
2017-09-28T02:38:50.794Z,4.90
2017-09-28T02:41:18.667Z,5.10
2017-09-28T02:43:47.253Z,4.67
2017-09-28T02:46:15.319Z,5.30
2017-09-28T02:48:43.271Z,5.20
2017-09-28T02:51:11.239Z,5.73
2017-09-28T02:53:39.125Z,4.57
2017-09-28T02:56:07.075Z,4.70
2017-09-28T02:58:35.598Z,4.97
2017-09-28T03:01:03.541Z,5.23
2017-09-28T03:03:31.332Z,4.93
2017-09-28T03:05:59.887Z,5.40
2017-09-28T03:08:32.782Z,5.30
2017-09-28T03:11:00.545Z,5.27
2017-09-28T03:13:28.513Z,5.10
2017-09-28T03:15:56.298Z,4.80
2017-09-28T03:18:24.964Z,5.07
2017-09-28T03:20:52.818Z,4.70
2017-09-28T03:23:20.718Z,5.30
2017-09-28T03:25:49.475Z,4.87
2017-09-28T03:28:17.338Z,5.00
2017-09-28T03:30:45.119Z,5.27
2017-09-28T03:33:13.687Z,5.60
2017-09-28T03:35:42.362Z,4.93
2017-09-28T03:38:10.165Z,5.50
2017-09-28T03:40:38.889Z,5.80
2017-09-28T03:43:06.696Z,4.80
2017-09-28T03:45:34.644Z,5.40
2017-09-28T03:48:02.488Z,5.90
2017-09-28T03:50:30.271Z,4.77
2017-09-28T03:52:58.154Z,5.73
2017-09-28T03:55:26.008Z,4.83
2017-09-28T03:57:54.545Z,5.60
2017-09-28T04:00:23.201Z,5.40
2017-09-28T04:02:51.890Z,5.37
2017-09-28T04:05:20.156Z,5.70
2017-09-28T04:07:48.104Z,5.13
2017-09-28T04:10:15.867Z,5.10
2017-09-28T04:12:44.580Z,4.63
2017-09-28T04:15:12.434Z,4.83
2017-09-28T04:17:40.385Z,5.27
2017-09-28T04:20:08.808Z,4.20
2017-09-28T04:22:37.351Z,5.80
2017-09-28T04:25:05.262Z,5.20
2017-09-28T04:27:33.919Z,4.80
2017-09-28T04:30:01.788Z,5.23
2017-09-28T04:32:29.736Z,5.20
2017-09-28T04:34:57.525Z,5.30
2017-09-28T04:37:26.783Z,5.53
2017-09-28T04:39:54.665Z,5.73
2017-09-28T04:42:24.089Z,5.93
2017-09-28T04:44:51.960Z,5.50
2017-09-28T04:47:19.807Z,5.23
2017-09-28T04:49:47.696Z,5.37
2017-09-28T04:52:15.454Z,4.90
2017-09-28T04:54:44.037Z,5.80
2017-09-28T04:57:12.578Z,4.83
2017-09-28T04:59:41.592Z,6.57
2017-09-28T05:02:09.490Z,6.20
2017-09-28T05:04:39.854Z,5.77
2017-09-28T05:07:07.667Z,6.70
2017-09-28T05:09:35.533Z,6.07
2017-09-28T05:12:03.315Z,6.00
2017-09-28T05:14:32.901Z,7.60
2017-09-28T05:17:00.613Z,6.80
2017-09-28T05:19:30.495Z,7.67
2017-09-28T05:21:59.151Z,6.43
2017-09-28T05:24:26.963Z,6.33
2017-09-28T05:26:55.619Z,5.53
2017-09-28T05:29:23.424Z,5.73
2017-09-28T05:31:51.353Z,5.27
2017-09-28T05:34:19.231Z,5.80
2017-09-28T05:36:47.295Z,5.97
2017-09-28T05:39:15.268Z,8.50
2017-09-28T05:41:44.763Z,7.70
2017-09-28T05:44:12.600Z,5.23
2017-09-28T05:46:40.397Z,4.93
2017-09-28T05:49:08.671Z,5.60
2017-09-28T05:51:36.622Z,5.43
2017-09-28T05:54:04.399Z,4.70
2017-09-28T05:56:32.250Z,5.03
2017-09-28T05:59:00.130Z,5.57
2017-09-28T06:01:28.037Z,4.80
2017-09-28T06:03:56.684Z,4.60
2017-09-28T06:06:24.760Z,4.20
2017-09-28T06:08:52.498Z,3.93
2017-09-28T06:11:21.188Z,5.10
2017-09-28T06:13:48.967Z,4.43
2017-09-28T06:16:16.830Z,3.90
2017-09-28T06:18:46.846Z,4.73
2017-09-28T06:21:15.094Z,4.57
2017-09-28T06:23:43.032Z,3.80
2017-09-28T06:26:12.787Z,3.97
2017-09-28T06:28:40.678Z,4.60
2017-09-28T06:31:08.450Z,3.80
2017-09-28T06:33:36.232Z,3.93
2017-09-28T06:36:04.891Z,4.83
2017-09-28T06:38:32.754Z,4.30
2017-09-28T06:41:00.625Z,4.50
2017-09-28T06:43:29.392Z,4.07
2017-09-28T06:45:58.204Z,4.07
2017-09-28T06:48:26.073Z,4.23
2017-09-28T06:50:55.672Z,3.67
2017-09-28T06:53:24.239Z,3.33
2017-09-28T06:55:52.930Z,4.60
2017-09-28T06:58:21.084Z,3.13
2017-09-28T07:00:48.874Z,3.80
2017-09-28T07:03:16.834Z,3.90
2017-09-28T07:05:44.924Z,4.03
2017-09-28T07:08:12.785Z,3.43
2017-09-28T07:10:40.737Z,3.27
2017-09-28T07:13:09.546Z,4.40
2017-09-28T07:15:37.621Z,4.00
2017-09-28T07:18:05.390Z,4.40
2017-09-28T07:20:33.989Z,5.13
2017-09-28T07:23:02.630Z,5.13
2017-09-28T07:25:30.494Z,5.27
2017-09-28T07:27:59.194Z,5.00
2017-09-28T07:30:28.251Z,5.03
2017-09-28T07:32:56.083Z,5.27
2017-09-28T07:35:24.830Z,5.83
2017-09-28T07:37:52.712Z,4.83
2017-09-28T07:40:20.756Z,5.03
2017-09-28T07:42:48.703Z,5.57
2017-09-28T07:45:16.614Z,4.93
2017-09-28T07:47:44.701Z,5.50
2017-09-28T07:50:12.958Z,5.43
2017-09-28T07:52:41.850Z,5.30
2017-09-28T07:55:09.615Z,4.97
2017-09-28T07:57:38.187Z,4.00
2017-09-28T08:00:06.030Z,5.10
2017-09-28T08:02:34.634Z,5.13
2017-09-28T08:05:02.606Z,4.90
2017-09-28T08:07:30.401Z,4.83
2017-09-28T08:09:58.851Z,5.23
2017-09-28T08:12:27.023Z,4.70
2017-09-28T08:14:54.805Z,5.07
2017-09-28T08:17:22.564Z,5.17
2017-09-28T08:19:50.441Z,5.60
2017-09-28T08:22:20.155Z,5.37
2017-09-28T08:24:48.120Z,6.00
2017-09-28T08:27:16.184Z,5.00
2017-09-28T08:29:44.051Z,5.23
2017-09-28T08:32:11.998Z,5.17
2017-09-28T08:34:39.879Z,5.17
2017-09-28T08:37:07.749Z,5.40
2017-09-28T08:39:35.531Z,4.70
2017-09-28T08:42:04.802Z,5.57
2017-09-28T08:44:34.109Z,5.30
2017-09-28T08:47:02.589Z,4.70
2017-09-28T08:49:31.061Z,5.00
2017-09-28T08:51:59.041Z,5.43
2017-09-28T08:54:27.007Z,5.30
2017-09-28T08:56:54.878Z,5.10
2017-09-28T08:59:22.896Z,4.80
2017-09-28T09:01:51.530Z,5.70
2017-09-28T09:04:19.404Z,6.13
2017-09-28T09:06:47.175Z,4.80
2017-09-28T09:09:16.756Z,5.33
2017-09-28T09:11:44.533Z,5.17
2017-09-28T09:14:12.603Z,5.53
2017-09-28T09:16:40.475Z,4.37
2017-09-28T09:19:08.454Z,5.40
2017-09-28T09:21:37.215Z,4.83
2017-09-28T09:24:04.970Z,5.13
2017-09-28T09:26:32.744Z,9.40
2017-09-28T09:29:00.506Z,6.53
2017-09-28T09:31:28.380Z,21.13
2017-09-28T09:33:56.121Z,22.80
2017-09-28T09:36:24.225Z,24.07
2017-09-28T09:38:52.587Z,24.27
2017-09-28T09:41:20.559Z,27.30
2017-09-28T09:43:48.630Z,23.67
2017-09-28T09:46:16.618Z,24.00
2017-09-28T09:48:44.400Z,26.47
2017-09-28T09:51:13.867Z,24.57
2017-09-28T09:53:41.754Z,23.83
2017-09-28T09:56:09.555Z,25.40
2017-09-28T09:58:38.034Z,26.40
2017-09-28T10:01:06.684Z,24.53
2017-09-28T10:03:34.775Z,24.57
2017-09-28T10:06:03.960Z,22.40
2017-09-28T10:08:33.699Z,21.33
2017-09-28T10:11:05.367Z,23.00
2017-09-28T10:13:39.513Z,22.30
2017-09-28T10:16:12.383Z,22.33
2017-09-28T10:18:40.298Z,21.80
2017-09-28T10:21:08.134Z,21.30
2017-09-28T10:23:35.925Z,20.53
2017-09-28T10:26:03.764Z,23.20
2017-09-28T10:28:31.541Z,21.70
2017-09-28T10:31:00.534Z,16.97
2017-09-28T10:33:28.417Z,19.67
2017-09-28T10:35:56.179Z,17.47
2017-09-28T10:38:25.059Z,18.57
2017-09-28T10:40:52.838Z,18.03
2017-09-28T10:43:21.494Z,19.30
2017-09-28T10:45:49.386Z,18.20
2017-09-28T10:48:17.142Z,18.40
2017-09-28T10:50:44.875Z,18.40
2017-09-28T10:53:12.753Z,18.47
2017-09-28T10:55:40.755Z,18.50
2017-09-28T10:58:09.410Z,16.97
2017-09-28T11:00:37.202Z,16.90
2017-09-28T11:03:05.979Z,17.50
2017-09-28T11:05:33.763Z,17.47
2017-09-28T11:08:02.293Z,18.10
2017-09-28T11:10:30.194Z,18.20
2017-09-28T11:12:58.660Z,18.67
2017-09-28T11:15:26.449Z,19.30
2017-09-28T11:17:54.199Z,19.07
2017-09-28T11:20:22.057Z,16.33
2017-09-28T11:22:49.831Z,16.67
2017-09-28T11:25:17.715Z,17.07
2017-09-28T11:27:45.580Z,15.70
2017-09-28T11:30:14.336Z,16.97
2017-09-28T11:32:42.305Z,17.30
2017-09-28T11:35:10.204Z,16.40
2017-09-28T11:37:38.779Z,16.40
2017-09-28T11:40:06.743Z,18.60
2017-09-28T11:42:34.516Z,17.00
2017-09-28T11:45:02.309Z,18.23
2017-09-28T11:47:30.956Z,19.20
2017-09-28T11:49:58.830Z,18.60
2017-09-28T11:52:27.631Z,16.90
2017-09-28T11:54:56.293Z,18.80
2017-09-28T11:57:24.169Z,17.00
2017-09-28T11:59:52.040Z,19.13
2017-09-28T12:02:20.696Z,16.47
2017-09-28T12:04:48.586Z,17.80
2017-09-28T12:07:17.169Z,17.60
2017-09-28T12:09:45.094Z,17.07
2017-09-28T12:12:12.908Z,19.67
2017-09-28T12:14:42.205Z,19.90
2017-09-28T12:17:11.623Z,20.03
2017-09-28T12:19:40.293Z,17.37
2017-09-28T12:22:09.699Z,17.57
2017-09-28T12:24:38.361Z,16.63
2017-09-28T12:27:06.324Z,19.10
2017-09-28T12:29:34.177Z,17.60
2017-09-28T12:32:01.948Z,18.70
2017-09-28T12:34:29.845Z,16.33
2017-09-28T12:36:57.605Z,16.00
2017-09-28T12:39:25.686Z,18.63
2017-09-28T12:41:55.265Z,17.70
2017-09-28T12:44:24.161Z,17.57
2017-09-28T12:46:52.023Z,17.87
2017-09-28T12:49:20.119Z,15.97
2017-09-28T12:51:47.992Z,15.67
2017-09-28T12:54:16.673Z,15.80
2017-09-28T12:56:45.352Z,13.10
2017-09-28T12:59:13.817Z,14.27
2017-09-28T13:01:41.713Z,13.20
2017-09-28T13:04:10.476Z,14.00
2017-09-28T13:06:39.264Z,13.73
2017-09-28T13:09:07.144Z,14.50
2017-09-28T13:11:35.103Z,13.93
2017-09-28T13:14:03.166Z,19.60
2017-09-28T13:16:30.947Z,16.77
2017-09-28T13:18:58.789Z,17.73
2017-09-28T13:21:26.693Z,15.40
2017-09-28T13:23:57.382Z,13.00
2017-09-28T13:26:25.260Z,13.63
2017-09-28T13:28:53.438Z,13.80
2017-09-28T13:31:21.221Z,13.70
2017-09-28T13:33:49.093Z,13.47
2017-09-28T13:36:18.484Z,14.30
2017-09-28T13:38:46.255Z,10.60
2017-09-28T13:41:14.216Z,12.60
2017-09-28T13:46:16.819Z,12.57
2017-09-28T13:48:44.671Z,12.47
2017-09-28T13:51:12.548Z,13.03
2017-09-28T13:53:40.397Z,12.30
2017-09-28T13:56:08.383Z,15.80
2017-09-28T13:58:36.351Z,15.50
2017-09-28T14:01:04.197Z,17.33
2017-09-28T14:03:33.093Z,15.03
2017-09-28T14:06:01.085Z,17.60
2017-09-28T14:08:28.991Z,16.67
2017-09-28T14:10:57.557Z,14.80
2017-09-28T14:13:26.214Z,15.70
2017-09-28T14:15:53.984Z,14.83
2017-09-28T14:18:22.422Z,14.57
2017-09-28T14:20:50.254Z,14.90
2017-09-28T14:23:18.780Z,14.70
2017-09-28T14:25:46.564Z,13.80
2017-09-28T14:28:14.944Z,16.13
2017-09-28T14:30:42.812Z,13.60
2017-09-28T14:33:10.572Z,14.97
2017-09-28T14:35:38.542Z,14.50
2017-09-28T14:38:07.435Z,13.80
2017-09-28T14:40:35.362Z,14.83
2017-09-28T14:43:03.263Z,13.07
2017-09-28T14:45:31.115Z,13.53
2017-09-28T14:47:58.847Z,12.73
2017-09-28T14:50:26.672Z,13.37
2017-09-28T14:52:54.655Z,15.10
2017-09-28T14:55:23.226Z,15.40
2017-09-28T14:57:51.186Z,12.03
2017-09-28T15:00:19.344Z,13.90
2017-09-28T15:02:47.124Z,14.47
2017-09-28T15:05:15.820Z,13.30
2017-09-28T15:07:44.211Z,13.00
2017-09-28T15:10:12.739Z,15.40
2017-09-28T15:12:40.627Z,11.23
2017-09-28T15:15:08.920Z,13.90
2017-09-28T15:17:36.699Z,13.80
2017-09-28T15:20:05.979Z,14.17
2017-09-28T15:22:33.743Z,12.37
2017-09-28T15:25:01.899Z,11.67
2017-09-28T15:27:29.875Z,11.97
2017-09-28T15:29:57.754Z,11.97
2017-09-28T15:32:25.559Z,11.00
2017-09-28T15:34:54.391Z,10.20
2017-09-28T15:37:23.029Z,10.40
2017-09-28T15:39:51.762Z,12.50
2017-09-28T15:42:19.744Z,12.73
2017-09-28T15:44:47.722Z,12.03
2017-09-28T15:47:15.674Z,10.87
2017-09-28T15:49:44.471Z,11.23
2017-09-28T15:52:12.356Z,12.00
2017-09-28T15:54:40.097Z,12.17
2017-09-28T15:57:07.953Z,12.53
2017-09-28T15:59:36.548Z,12.80
2017-09-28T16:02:04.321Z,11.93
2017-09-28T16:04:32.270Z,11.70
2017-09-28T16:07:00.238Z,11.10
2017-09-28T16:09:28.123Z,10.50
2017-09-28T16:11:56.073Z,11.00
2017-09-28T16:14:23.944Z,11.70
2017-09-28T16:16:51.828Z,12.03
2017-09-28T16:19:20.810Z,9.77
2017-09-28T16:21:48.774Z,12.50
2017-09-28T16:24:16.841Z,13.47
2017-09-28T16:26:44.830Z,12.87
2017-09-28T16:29:12.592Z,12.93
2017-09-28T16:31:40.336Z,13.40
2017-09-28T16:34:08.745Z,13.87
2017-09-28T16:36:36.517Z,14.30
2017-09-28T16:39:05.095Z,13.90
2017-09-28T16:41:33.045Z,17.40
2017-09-28T16:44:01.018Z,16.13
2017-09-28T16:46:28.867Z,15.80
2017-09-28T16:48:57.981Z,17.00
2017-09-28T16:51:25.804Z,16.23
2017-09-28T16:53:53.613Z,18.03
2017-09-28T16:56:22.104Z,16.43
2017-09-28T16:58:52.604Z,18.10
2017-09-28T17:01:20.900Z,16.63
2017-09-28T17:03:48.843Z,16.40
2017-09-28T17:06:16.625Z,15.57
2017-09-28T17:08:44.487Z,14.70
2017-09-28T17:11:12.357Z,16.37
2017-09-28T17:13:40.191Z,15.90
2017-09-28T17:16:08.078Z,17.07
2017-09-28T17:18:35.959Z,16.03
2017-09-28T17:21:05.061Z,17.63
2017-09-28T17:23:33.934Z,17.37
2017-09-28T17:26:02.352Z,17.60
2017-09-28T17:28:30.898Z,20.23
2017-09-28T17:30:58.984Z,19.77
2017-09-28T17:33:27.921Z,18.93
2017-09-28T17:35:55.820Z,21.50
2017-09-28T17:38:23.618Z,27.53
2017-09-28T17:40:51.673Z,22.93
2017-09-28T17:43:20.659Z,24.40
2017-09-28T17:45:49.458Z,25.40
2017-09-28T17:48:17.312Z,24.07
2017-09-28T17:50:45.177Z,23.90
2017-09-28T17:53:13.151Z,22.10
2017-09-28T17:55:41.727Z,20.00
2017-09-28T17:58:09.921Z,20.87
2017-09-28T18:00:37.987Z,17.33
2017-09-28T18:03:05.940Z,16.47
2017-09-28T18:05:33.702Z,13.90
2017-09-28T18:08:01.603Z,13.00
2017-09-28T18:10:31.506Z,12.30
2017-09-28T18:12:59.277Z,12.37
2017-09-28T18:15:28.150Z,11.53
2017-09-28T18:17:55.915Z,10.67
2017-09-28T18:20:23.801Z,10.60
2017-09-28T18:22:52.069Z,9.70
2017-09-28T18:25:20.830Z,10.20
2017-09-28T18:27:48.591Z,11.67
2017-09-28T18:30:16.700Z,11.37
2017-09-28T18:32:44.633Z,11.23
2017-09-28T18:35:12.411Z,12.83
2017-09-28T18:37:40.384Z,12.97
2017-09-28T18:40:08.205Z,15.17
2017-09-28T18:42:36.020Z,14.43
2017-09-28T18:45:04.112Z,12.30
2017-09-28T18:47:33.471Z,15.43
2017-09-28T18:50:02.219Z,15.50
2017-09-28T18:52:30.227Z,16.27
2017-09-28T18:54:58.419Z,18.10
2017-09-28T18:57:26.389Z,14.90
2017-09-28T18:59:54.242Z,14.87
2017-09-28T19:02:22.662Z,15.40
2017-09-28T19:04:51.302Z,14.50
2017-09-28T19:07:19.170Z,16.47
2017-09-28T19:09:47.039Z,16.20
2017-09-28T19:12:14.803Z,15.13
2017-09-28T19:14:42.562Z,15.10
2017-09-28T19:17:10.458Z,15.70
2017-09-28T19:19:38.312Z,13.47
2017-09-28T19:22:06.182Z,13.47
2017-09-28T19:24:34.235Z,12.53
2017-09-28T19:27:02.117Z,12.27
2017-09-28T19:29:29.966Z,12.40
2017-09-28T19:31:57.960Z,12.27
2017-09-28T19:34:25.833Z,12.07
2017-09-28T19:36:53.675Z,14.00
2017-09-28T19:39:21.518Z,12.00
2017-09-28T19:41:49.439Z,12.47
2017-09-28T19:44:18.128Z,11.20
2017-09-28T19:46:46.871Z,11.37
2017-09-28T19:49:14.823Z,12.10
2017-09-28T19:51:42.737Z,11.83
2017-09-28T19:54:12.137Z,11.23
2017-09-28T19:56:40.105Z,9.27
2017-09-28T19:59:08.042Z,9.57
2017-09-28T20:01:36.480Z,9.60
2017-09-28T20:04:05.317Z,9.53
2017-09-28T20:06:33.105Z,9.70
2017-09-28T20:09:00.922Z,8.37
2017-09-28T20:11:28.848Z,9.50
2017-09-28T20:13:56.709Z,9.33
2017-09-28T20:19:17.407Z,9.97
2017-09-28T20:21:45.368Z,7.80
2017-09-28T20:24:13.410Z,9.63
2017-09-28T20:26:41.224Z,8.47
2017-09-28T20:29:09.193Z,8.63
2017-09-28T20:31:36.995Z,9.37
2017-09-28T20:34:04.909Z,8.80
2017-09-28T20:36:32.978Z,8.27
2017-09-28T20:39:00.982Z,9.30
2017-09-28T20:41:28.831Z,8.83
2017-09-28T20:43:57.030Z,9.40
2017-09-28T20:46:25.599Z,9.63
2017-09-28T20:48:55.100Z,9.20
2017-09-28T20:51:23.075Z,9.60
2017-09-28T20:53:51.040Z,10.20
2017-09-28T20:56:18.899Z,12.47
2017-09-28T20:58:46.883Z,11.53
2017-09-28T21:01:14.831Z,10.00
2017-09-28T21:03:42.828Z,9.30
2017-09-28T21:06:11.350Z,9.77
2017-09-28T21:08:39.249Z,11.00
2017-09-28T21:11:07.204Z,10.00
2017-09-28T21:13:35.088Z,11.40
2017-09-28T21:16:03.060Z,9.53
2017-09-28T21:18:30.880Z,10.33
2017-09-28T21:20:58.783Z,9.10
2017-09-28T21:23:26.810Z,10.67
2017-09-28T21:25:54.576Z,9.53
2017-09-28T21:28:22.313Z,9.70
2017-09-28T21:30:50.946Z,10.00
2017-09-28T21:33:18.743Z,9.77
2017-09-28T21:35:46.706Z,8.33
2017-09-28T21:38:15.080Z,9.37
2017-09-28T21:40:42.954Z,8.70
2017-09-28T21:43:10.769Z,8.97
2017-09-28T21:45:38.587Z,9.53
2017-09-28T21:48:06.458Z,9.40
2017-09-28T21:50:34.198Z,9.53
2017-09-28T21:53:02.165Z,8.97
2017-09-28T21:55:30.031Z,11.17
2017-09-28T21:57:57.896Z,11.50
2017-09-28T22:00:25.641Z,10.17
2017-09-28T22:02:53.404Z,10.70
2017-09-28T22:05:21.198Z,9.67
2017-09-28T22:07:48.949Z,11.20
2017-09-28T22:10:16.934Z,9.27
2017-09-28T22:12:44.805Z,11.30
2017-09-28T22:15:12.642Z,10.90
2017-09-28T22:17:40.539Z,10.90
2017-09-28T22:20:08.452Z,10.10
2017-09-28T22:22:36.674Z,11.63
2017-09-28T22:25:04.632Z,11.90
2017-09-28T22:27:32.511Z,11.50
2017-09-28T22:30:00.730Z,11.43
2017-09-28T22:32:28.567Z,10.70
2017-09-28T22:34:56.522Z,10.13
2017-09-28T22:37:24.590Z,10.47
2017-09-28T22:39:52.446Z,7.63
2017-09-28T22:42:20.359Z,7.60
2017-09-28T22:44:49.005Z,8.17
2017-09-28T22:47:16.868Z,7.70
2017-09-28T22:49:44.583Z,8.57
2017-09-28T22:52:13.326Z,8.30
2017-09-28T22:54:41.186Z,9.00
2017-09-28T22:57:09.096Z,9.00
2017-09-28T22:59:37.587Z,9.30
2017-09-28T23:02:06.125Z,8.90
2017-09-28T23:04:33.923Z,9.30
2017-09-28T23:07:02.535Z,9.90
2017-09-28T23:09:30.395Z,9.53
2017-09-28T23:11:58.208Z,10.20
2017-09-28T23:14:26.159Z,9.20
2017-09-28T23:16:54.023Z,10.80
2017-09-28T23:19:21.928Z,10.27
2017-09-28T23:21:49.669Z,10.43
2017-09-28T23:24:17.539Z,9.97
2017-09-28T23:26:45.286Z,9.13
2017-09-28T23:29:13.375Z,8.80
2017-09-28T23:31:41.531Z,9.00
2017-09-28T23:34:09.413Z,7.67
2017-09-28T23:36:37.170Z,7.60
2017-09-28T23:39:05.048Z,7.70
2017-09-28T23:41:32.791Z,7.47
2017-09-28T23:44:00.575Z,7.60
2017-09-28T23:46:28.626Z,8.00
2017-09-28T23:48:56.421Z,7.80
2017-09-28T23:51:24.179Z,9.27
2017-09-28T23:53:51.905Z,8.03
2017-09-28T23:56:19.652Z,8.30
2017-09-28T23:58:47.463Z,8.20
